sensor_id;sensor_type;location;lat;lon;timestamp;pressure;altitude;pressure_sealevel;temperature;humidity
51287;BME280;37364;46.974;18.916;2023-04-20T00:00:49;152205.41;;;7.37;100.00
51287;BME280;37364;46.974;18.916;2023-04-20T00:03:23;152187.31;;;7.30;100.00
51287;BME280;37364;46.974;18.916;2023-04-20T00:05:54;152196.34;;;7.33;100.00
51287;BME280;37364;46.974;18.916;2023-04-20T00:08:27;152197.63;;;7.34;100.00
51287;BME280;37364;46.974;18.916;2023-04-20T00:10:57;152211.84;;;7.40;100.00
51287;BME280;37364;46.974;18.916;2023-04-20T00:13:27;152205.41;;;7.37;100.00
51287;BME280;37364;46.974;18.916;2023-04-20T00:15:57;152223.47;;;7.44;100.00
51287;BME280;37364;46.974;18.916;2023-04-20T00:18:31;152223.47;;;7.44;100.00
51287;BME280;37364;46.974;18.916;2023-04-20T00:21:02;152210.56;;;7.39;100.00
51287;BME280;37364;46.974;18.916;2023-04-20T00:23:32;152238.94;;;7.50;100.00
51287;BME280;37364;46.974;18.916;2023-04-20T00:26:02;152272.56;;;7.64;100.00
51287;BME280;37364;46.974;18.916;2023-04-20T00:28:33;152236.41;;;7.49;100.00
51287;BME280;37364;46.974;18.916;2023-04-20T00:31:03;152210.56;;;7.39;100.00
51287;BME280;37364;46.974;18.916;2023-04-20T00:33:37;152210.56;;;7.39;100.00
51287;BME280;37364;46.974;18.916;2023-04-20T00:36:08;152205.41;;;7.37;100.00
51287;BME280;37364;46.974;18.916;2023-04-20T00:38:38;152224.78;;;7.45;100.00
51287;BME280;37364;46.974;18.916;2023-04-20T00:41:09;152207.97;;;7.38;100.00
51287;BME280;37364;46.974;18.916;2023-04-20T00:43:48;152210.56;;;7.39;100.00
51287;BME280;37364;46.974;18.916;2023-04-20T00:46:19;152206.69;;;7.38;100.00
51287;BME280;37364;46.974;18.916;2023-04-20T00:48:52;152204.06;;;7.37;100.00
51287;BME280;37364;46.974;18.916;2023-04-20T00:51:23;152193.75;;;7.32;100.00
51287;BME280;37364;46.974;18.916;2023-04-20T00:53:53;152187.31;;;7.30;100.00
51287;BME280;37364;46.974;18.916;2023-04-20T00:56:25;152171.81;;;7.24;100.00
51287;BME280;37364;46.974;18.916;2023-04-20T00:58:55;152179.53;;;7.27;100.00
51287;BME280;37364;46.974;18.916;2023-04-20T01:01:25;152167.94;;;7.22;100.00
51287;BME280;37364;46.974;18.916;2023-04-20T01:03:58;152169.22;;;7.23;100.00
51287;BME280;37364;46.974;18.916;2023-04-20T01:06:29;152167.94;;;7.22;100.00
51287;BME280;37364;46.974;18.916;2023-04-20T01:08:59;152166.66;;;7.22;100.00
51287;BME280;37364;46.974;18.916;2023-04-20T01:11:29;152173.09;;;7.24;100.00
51287;BME280;37364;46.974;18.916;2023-04-20T01:13:59;152158.88;;;7.19;100.00
51287;BME280;37364;46.974;18.916;2023-04-20T01:16:30;152142.09;;;7.12;100.00
51287;BME280;37364;46.974;18.916;2023-04-20T01:19:03;152139.50;;;7.11;100.00
51287;BME280;37364;46.974;18.916;2023-04-20T01:21:33;152142.09;;;7.12;100.00
51287;BME280;37364;46.974;18.916;2023-04-20T01:24:07;152139.50;;;7.11;100.00
51287;BME280;37364;46.974;18.916;2023-04-20T01:26:37;152130.47;;;7.07;100.00
51287;BME280;37364;46.974;18.916;2023-04-20T01:29:07;152130.47;;;7.07;100.00
51287;BME280;37364;46.974;18.916;2023-04-20T01:31:38;152127.91;;;7.06;100.00
51287;BME280;37364;46.974;18.916;2023-04-20T01:34:08;152130.47;;;7.07;100.00
51287;BME280;37364;46.974;18.916;2023-04-20T01:36:38;152130.47;;;7.07;100.00
51287;BME280;37364;46.974;18.916;2023-04-20T01:39:11;152113.69;;;7.01;100.00
51287;BME280;37364;46.974;18.916;2023-04-20T01:41:42;152103.38;;;6.97;100.00
51287;BME280;37364;46.974;18.916;2023-04-20T01:44:12;152108.53;;;6.99;100.00
51287;BME280;37364;46.974;18.916;2023-04-20T01:46:43;152091.75;;;6.92;100.00
51287;BME280;37364;46.974;18.916;2023-04-20T01:49:13;152074.94;;;6.85;100.00
51287;BME280;37364;46.974;18.916;2023-04-20T01:51:44;152063.34;;;6.81;100.00
51287;BME280;37364;46.974;18.916;2023-04-20T01:54:16;152050.41;;;6.76;100.00
51287;BME280;37364;46.974;18.916;2023-04-20T01:56:47;152056.84;;;6.78;100.00
51287;BME280;37364;46.974;18.916;2023-04-20T01:59:17;152054.28;;;6.77;100.00
51287;BME280;37364;46.974;18.916;2023-04-20T02:01:47;152028.47;;;6.67;100.00
51287;BME280;37364;46.974;18.916;2023-04-20T02:04:18;152029.75;;;6.67;100.00
51287;BME280;37364;46.974;18.916;2023-04-20T02:06:49;152027.16;;;6.66;100.00
51287;BME280;37364;46.974;18.916;2023-04-20T02:09:22;152020.72;;;6.64;100.00
51287;BME280;37364;46.974;18.916;2023-04-20T02:11:53;152010.41;;;6.60;100.00
51287;BME280;37364;46.974;18.916;2023-04-20T02:14:23;152000.06;;;6.56;100.00
51287;BME280;37364;46.974;18.916;2023-04-20T02:16:53;152005.22;;;6.58;100.00
51287;BME280;37364;46.974;18.916;2023-04-20T02:19:25;151980.69;;;6.48;100.00
51287;BME280;37364;46.974;18.916;2023-04-20T02:21:55;151975.53;;;6.46;100.00
51287;BME280;37364;46.974;18.916;2023-04-20T02:24:28;151956.19;;;6.38;100.00
51287;BME280;37364;46.974;18.916;2023-04-20T02:26:58;151954.91;;;6.38;100.00
51287;BME280;37364;46.974;18.916;2023-04-20T02:29:30;151948.47;;;6.35;100.00
51287;BME280;37364;46.974;18.916;2023-04-20T02:32:01;151936.81;;;6.30;100.00
51287;BME280;37364;46.974;18.916;2023-04-20T02:34:31;151930.38;;;6.28;100.00
51287;BME280;37364;46.974;18.916;2023-04-20T02:37:01;151927.75;;;6.27;100.00
51287;BME280;37364;46.974;18.916;2023-04-20T02:39:36;151911.00;;;6.20;100.00
51287;BME280;37364;46.974;18.916;2023-04-20T02:42:06;151890.38;;;6.12;100.00
51287;BME280;37364;46.974;18.916;2023-04-20T02:44:37;151882.59;;;6.09;100.00
51287;BME280;37364;46.974;18.916;2023-04-20T02:47:07;151877.44;;;6.07;100.00
51287;BME280;37364;46.974;18.916;2023-04-20T02:49:38;151880.06;;;6.08;100.00
51287;BME280;37364;46.974;18.916;2023-04-20T02:52:08;151854.22;;;5.98;100.00
51287;BME280;37364;46.974;18.916;2023-04-20T02:54:41;151854.22;;;5.98;100.00
51287;BME280;37364;46.974;18.916;2023-04-20T02:57:12;151841.28;;;5.92;100.00
51287;BME280;37364;46.974;18.916;2023-04-20T02:59:42;151838.69;;;5.91;100.00
51287;BME280;37364;46.974;18.916;2023-04-20T03:02:16;151846.44;;;5.94;100.00
51287;BME280;37364;46.974;18.916;2023-04-20T03:04:47;151829.63;;;5.88;100.00
51287;BME280;37364;46.974;18.916;2023-04-20T03:07:19;151811.59;;;5.81;100.00
51287;BME280;37364;46.974;18.916;2023-04-20T03:09:53;151815.50;;;5.82;100.00
51287;BME280;37364;46.974;18.916;2023-04-20T03:12:37;151803.84;;;5.78;100.00
51287;BME280;37364;46.974;18.916;2023-04-20T03:15:09;151810.34;;;5.80;100.00
51287;BME280;37364;46.974;18.916;2023-04-20T03:17:49;151801.28;;;5.77;100.00
51287;BME280;37364;46.974;18.916;2023-04-20T03:20:19;151790.97;;;5.72;100.00
51287;BME280;37364;46.974;18.916;2023-04-20T03:22:50;151790.97;;;5.72;100.00
51287;BME280;37364;46.974;18.916;2023-04-20T03:25:26;151789.66;;;5.72;100.00
51287;BME280;37364;46.974;18.916;2023-04-20T03:28:03;151771.63;;;5.65;100.00
51287;BME280;37364;46.974;18.916;2023-04-20T03:30:34;151749.66;;;5.56;100.00
51287;BME280;37364;46.974;18.916;2023-04-20T03:33:11;151747.09;;;5.55;100.00
51287;BME280;37364;46.974;18.916;2023-04-20T03:35:41;151732.91;;;5.49;100.00
51287;BME280;37364;46.974;18.916;2023-04-20T03:38:15;151720.00;;;5.44;100.00
51287;BME280;37364;46.974;18.916;2023-04-20T03:40:48;151709.69;;;5.40;100.00
51287;BME280;37364;46.974;18.916;2023-04-20T03:43:18;151707.13;;;5.39;100.00
51287;BME280;37364;46.974;18.916;2023-04-20T03:45:48;151708.41;;;5.40;100.00
51287;BME280;37364;46.974;18.916;2023-04-20T03:48:19;151704.53;;;5.38;100.00
51287;BME280;37364;46.974;18.916;2023-04-20T03:50:51;151703.25;;;5.38;100.00
51287;BME280;37364;46.974;18.916;2023-04-20T03:53:21;151703.25;;;5.38;100.00
51287;BME280;37364;46.974;18.916;2023-04-20T03:55:55;151710.97;;;5.41;100.00
51287;BME280;37364;46.974;18.916;2023-04-20T03:58:25;151709.69;;;5.40;100.00
51287;BME280;37364;46.974;18.916;2023-04-20T04:01:05;151716.13;;;5.43;100.00
51287;BME280;37364;46.974;18.916;2023-04-20T04:03:40;151726.44;;;5.47;100.00
51287;BME280;37364;46.974;18.916;2023-04-20T04:06:11;151720.00;;;5.44;100.00
51287;BME280;37364;46.974;18.916;2023-04-20T04:08:41;151707.13;;;5.39;100.00
51287;BME280;37364;46.974;18.916;2023-04-20T04:11:15;151723.88;;;5.46;100.00
51287;BME280;37364;46.974;18.916;2023-04-20T04:13:45;151727.75;;;5.47;100.00
51287;BME280;37364;46.974;18.916;2023-04-20T04:16:16;151731.63;;;5.49;100.00
51287;BME280;37364;46.974;18.916;2023-04-20T04:18:48;151745.78;;;5.54;100.00
51287;BME280;37364;46.974;18.916;2023-04-20T04:21:18;151758.69;;;5.60;100.00
51287;BME280;37364;46.974;18.916;2023-04-20T04:23:55;151766.47;;;5.63;100.00
51287;BME280;37364;46.974;18.916;2023-04-20T04:26:46;151772.91;;;5.65;100.00
51287;BME280;37364;46.974;18.916;2023-04-20T04:29:17;151802.56;;;5.77;100.00
51287;BME280;37364;46.974;18.916;2023-04-20T04:31:48;151801.28;;;5.77;100.00
51287;BME280;37364;46.974;18.916;2023-04-20T04:34:18;151806.44;;;5.79;100.00
51287;BME280;37364;46.974;18.916;2023-04-20T04:36:52;151823.19;;;5.85;100.00
51287;BME280;37364;46.974;18.916;2023-04-20T04:39:31;151827.09;;;5.87;100.00
51287;BME280;37364;46.974;18.916;2023-04-20T04:42:12;151847.78;;;5.95;100.00
51287;BME280;37364;46.974;18.916;2023-04-20T04:44:42;151861.97;;;6.01;100.00
51287;BME280;37364;46.974;18.916;2023-04-20T04:47:19;151891.66;;;6.12;100.00
51287;BME280;37364;46.974;18.916;2023-04-20T04:49:51;151923.94;;;6.25;100.00
51287;BME280;37364;46.974;18.916;2023-04-20T04:52:21;151930.38;;;6.28;100.00
51287;BME280;37364;46.974;18.916;2023-04-20T04:54:52;151961.34;;;6.40;100.00
51287;BME280;37364;46.974;18.916;2023-04-20T04:57:24;151975.53;;;6.46;100.00
51287;BME280;37364;46.974;18.916;2023-04-20T04:59:55;151994.91;;;6.53;100.00
51287;BME280;37364;46.974;18.916;2023-04-20T05:02:25;152019.44;;;6.63;100.00
51287;BME280;37364;46.974;18.916;2023-04-20T05:04:55;152038.81;;;6.71;100.00
51287;BME280;37364;46.974;18.916;2023-04-20T05:07:26;152050.41;;;6.76;100.00
51287;BME280;37364;46.974;18.916;2023-04-20T05:09:56;152076.22;;;6.86;100.00
51287;BME280;37364;46.974;18.916;2023-04-20T05:12:29;152089.16;;;6.91;100.00
51287;BME280;37364;46.974;18.916;2023-04-20T05:14:59;152108.53;;;6.99;100.00
51287;BME280;37364;46.974;18.916;2023-04-20T05:17:30;152156.31;;;7.18;100.00
51287;BME280;37364;46.974;18.916;2023-04-20T05:20:00;152184.69;;;7.29;100.00
51287;BME280;37364;46.974;18.916;2023-04-20T05:22:32;152227.34;;;7.46;100.00
51287;BME280;37364;46.974;18.916;2023-04-20T05:25:03;152271.28;;;7.63;100.00
51287;BME280;37364;46.974;18.916;2023-04-20T05:27:36;152295.81;;;7.73;100.00
51287;BME280;37364;46.974;18.916;2023-04-20T05:30:07;152326.81;;;7.85;100.00
51287;BME280;37364;46.974;18.916;2023-04-20T05:32:48;152360.44;;;7.99;100.00
51287;BME280;37364;46.974;18.916;2023-04-20T05:35:19;152406.94;;;8.17;100.00
51287;BME280;37364;46.974;18.916;2023-04-20T05:37:50;152399.22;;;8.14;100.00
51287;BME280;37364;46.974;18.916;2023-04-20T05:40:20;152450.88;;;8.35;100.00
51287;BME280;37364;46.974;18.916;2023-04-20T05:42:53;152465.13;;;8.40;100.00
51287;BME280;37364;46.974;18.916;2023-04-20T05:45:23;152531.13;;;8.66;100.00
51287;BME280;37364;46.974;18.916;2023-04-20T05:47:54;152588.00;;;8.89;100.00
51287;BME280;37364;46.974;18.916;2023-04-20T05:50:26;152655.25;;;9.16;100.00
51287;BME280;37364;46.974;18.916;2023-04-20T05:52:56;152652.66;;;9.15;100.00
51287;BME280;37364;46.974;18.916;2023-04-20T05:55:26;152694.06;;;9.31;100.00
51287;BME280;37364;46.974;18.916;2023-04-20T05:57:59;152683.69;;;9.27;100.00
51287;BME280;37364;46.974;18.916;2023-04-20T06:00:30;152792.34;;;9.70;100.00
51287;BME280;37364;46.974;18.916;2023-04-20T06:03:00;152881.66;;;10.05;100.00
51287;BME280;37364;46.974;18.916;2023-04-20T06:05:31;152941.22;;;10.29;100.00
51287;BME280;37364;46.974;18.916;2023-04-20T06:08:01;152986.59;;;10.47;100.00
51287;BME280;37364;46.974;18.916;2023-04-20T06:10:31;153042.25;;;10.69;100.00
51287;BME280;37364;46.974;18.916;2023-04-20T06:13:04;153030.59;;;10.64;100.00
51287;BME280;37364;46.974;18.916;2023-04-20T06:15:35;153043.53;;;10.69;100.00
51287;BME280;37364;46.974;18.916;2023-04-20T06:18:05;153140.66;;;11.08;100.00
51287;BME280;37364;46.974;18.916;2023-04-20T06:20:35;153143.22;;;11.09;100.00
51287;BME280;37364;46.974;18.916;2023-04-20T06:23:06;153099.19;;;10.92;100.00
51287;BME280;37364;46.974;18.916;2023-04-20T06:25:37;153135.50;;;11.06;100.00
51287;BME280;37364;46.974;18.916;2023-04-20T06:28:10;153219.69;;;11.39;100.00
51287;BME280;37364;46.974;18.916;2023-04-20T06:30:40;153230.03;;;11.43;100.00
51287;BME280;37364;46.974;18.916;2023-04-20T06:33:11;153307.78;;;11.74;100.00
51287;BME280;37364;46.974;18.916;2023-04-20T06:35:43;153390.75;;;12.07;100.00
51287;BME280;37364;46.974;18.916;2023-04-20T06:38:13;153398.53;;;12.10;100.00
51287;BME280;37364;46.974;18.916;2023-04-20T06:40:43;153411.53;;;12.15;100.00
51287;BME280;37364;46.974;18.916;2023-04-20T06:43:16;153524.28;;;12.60;100.00
51287;BME280;37364;46.974;18.916;2023-04-20T06:45:46;153552.81;;;12.71;100.00
51287;BME280;37364;46.974;18.916;2023-04-20T06:48:17;153595.63;;;12.88;100.00
51287;BME280;37364;46.974;18.916;2023-04-20T06:50:58;153646.19;;;13.08;100.00
51287;BME280;37364;46.974;18.916;2023-04-20T06:53:29;153665.66;;;13.16;100.00
51287;BME280;37364;46.974;18.916;2023-04-20T06:55:59;153729.25;;;13.41;100.00
51287;BME280;37364;46.974;18.916;2023-04-20T06:58:35;153788.94;;;13.64;100.00
51287;BME280;37364;46.974;18.916;2023-04-20T07:01:05;153794.13;;;13.67;100.00
51287;BME280;37364;46.974;18.916;2023-04-20T07:03:35;153843.44;;;13.86;100.00
51287;BME280;37364;46.974;18.916;2023-04-20T07:06:06;153868.09;;;13.96;100.00
51287;BME280;37364;46.974;18.916;2023-04-20T07:08:38;153813.59;;;13.74;100.00
51287;BME280;37364;46.974;18.916;2023-04-20T07:11:09;153750.00;;;13.49;100.00
51287;BME280;37364;46.974;18.916;2023-04-20T07:13:42;153873.28;;;13.98;100.00
51287;BME280;37364;46.974;18.916;2023-04-20T07:16:14;153939.47;;;14.24;100.00
51287;BME280;37364;46.974;18.916;2023-04-20T07:18:44;153836.91;;;13.83;100.00
51287;BME280;37364;46.974;18.916;2023-04-20T07:21:14;153925.19;;;14.18;100.00
51287;BME280;37364;46.974;18.916;2023-04-20T07:23:45;154008.28;;;14.51;100.00
51287;BME280;37364;46.974;18.916;2023-04-20T07:26:15;153796.69;;;13.68;100.00
51287;BME280;37364;46.974;18.916;2023-04-20T07:28:48;153979.69;;;14.40;100.00
51287;BME280;37364;46.974;18.916;2023-04-20T07:31:18;153934.28;;;14.22;100.00
51287;BME280;37364;46.974;18.916;2023-04-20T07:33:48;154047.28;;;14.67;100.00
51287;BME280;37364;46.974;18.916;2023-04-20T07:36:19;154090.09;;;14.83;100.00
51287;BME280;37364;46.974;18.916;2023-04-20T07:38:49;154079.72;;;14.79;100.00
51287;BME280;37364;46.974;18.916;2023-04-20T07:41:19;154042.09;;;14.65;100.00
51287;BME280;37364;46.974;18.916;2023-04-20T07:43:52;153997.88;;;14.47;100.00
51287;BME280;37364;46.974;18.916;2023-04-20T07:46:22;154094.00;;;14.85;100.00
51287;BME280;37364;46.974;18.916;2023-04-20T07:48:57;154010.84;;;14.52;100.00
51287;BME280;37364;46.974;18.916;2023-04-20T07:51:27;154031.69;;;14.60;100.00
51287;BME280;37364;46.974;18.916;2023-04-20T07:53:58;154047.28;;;14.67;100.00
51287;BME280;37364;46.974;18.916;2023-04-20T07:56:29;154179.69;;;15.19;100.00
51287;BME280;37364;46.974;18.916;2023-04-20T07:59:02;154192.69;;;15.24;100.00
51287;BME280;37364;46.974;18.916;2023-04-20T08:01:32;154201.81;;;15.28;100.00
51287;BME280;37364;46.974;18.916;2023-04-20T08:04:03;154123.88;;;14.97;100.00
51287;BME280;37364;46.974;18.916;2023-04-20T08:06:33;154145.97;;;15.06;100.00
51287;BME280;37364;46.974;18.916;2023-04-20T08:09:04;154232.97;;;15.40;100.00
51287;BME280;37364;46.974;18.916;2023-04-20T08:11:34;154336.94;;;15.81;100.00
51287;BME280;37364;46.974;18.916;2023-04-20T08:14:07;154181.03;;;15.19;100.00
51287;BME280;37364;46.974;18.916;2023-04-20T08:16:37;154346.06;;;15.85;100.00
51287;BME280;37364;46.974;18.916;2023-04-20T08:19:08;154383.75;;;15.99;100.00
51287;BME280;37364;46.974;18.916;2023-04-20T08:21:58;154403.22;;;16.07;100.00
51287;BME280;37364;46.974;18.916;2023-04-20T08:24:29;154312.22;;;15.71;100.00
51287;BME280;37364;46.974;18.916;2023-04-20T08:26:59;154395.44;;;16.04;100.00
51287;BME280;37364;46.974;18.916;2023-04-20T08:29:32;154481.22;;;16.38;100.00
51287;BME280;37364;46.974;18.916;2023-04-20T08:32:03;154414.94;;;16.12;100.00
51287;BME280;37364;46.974;18.916;2023-04-20T08:34:35;154548.81;;;16.65;100.00
51287;BME280;37364;46.974;18.916;2023-04-20T08:37:05;154464.31;;;16.31;100.00
51287;BME280;37364;46.974;18.916;2023-04-20T08:39:36;154412.31;;;16.11;100.00
51287;BME280;37364;46.974;18.916;2023-04-20T08:42:06;154577.44;;;16.76;100.00
51287;BME280;37364;46.974;18.916;2023-04-20T08:44:39;154542.28;;;16.62;98.98
51287;BME280;37364;46.974;18.916;2023-04-20T08:47:09;154495.50;;;16.44;98.44
51287;BME280;37364;46.974;18.916;2023-04-20T08:49:41;154481.22;;;16.38;99.04
51287;BME280;37364;46.974;18.916;2023-04-20T08:52:13;154643.78;;;17.02;100.00
51287;BME280;37364;46.974;18.916;2023-04-20T08:54:43;154429.25;;;16.17;100.00
51287;BME280;37364;46.974;18.916;2023-04-20T08:57:23;154561.78;;;16.70;100.00
51287;BME280;37364;46.974;18.916;2023-04-20T08:59:56;154580.00;;;16.77;100.00
51287;BME280;37364;46.974;18.916;2023-04-20T09:02:27;154668.50;;;17.12;98.62
51287;BME280;37364;46.974;18.916;2023-04-20T09:05:00;154699.69;;;17.24;100.00
51287;BME280;37364;46.974;18.916;2023-04-20T09:07:31;154686.72;;;17.19;97.59
51287;BME280;37364;46.974;18.916;2023-04-20T09:10:02;154650.28;;;17.05;97.76
51287;BME280;37364;46.974;18.916;2023-04-20T09:12:40;154548.81;;;16.65;98.99
51287;BME280;37364;46.974;18.916;2023-04-20T09:15:23;154476.00;;;16.36;100.00
51287;BME280;37364;46.974;18.916;2023-04-20T09:17:54;154695.78;;;17.23;100.00
51287;BME280;37364;46.974;18.916;2023-04-20T09:20:29;154728.31;;;17.35;98.27
51287;BME280;37364;46.974;18.916;2023-04-20T09:23:10;154401.91;;;16.07;100.00
51287;BME280;37364;46.974;18.916;2023-04-20T09:25:41;154720.50;;;17.32;100.00
51287;BME280;37364;46.974;18.916;2023-04-20T09:28:12;154639.88;;;17.00;95.81
51287;BME280;37364;46.974;18.916;2023-04-20T09:30:48;154850.63;;;17.84;100.00
51287;BME280;37364;46.974;18.916;2023-04-20T09:33:18;154959.91;;;18.27;90.70
51287;BME280;37364;46.974;18.916;2023-04-20T09:35:48;154931.31;;;18.15;87.90
51287;BME280;37364;46.974;18.916;2023-04-20T09:38:24;154717.91;;;17.31;84.19
51287;BME280;37364;46.974;18.916;2023-04-20T09:40:56;154533.22;;;16.58;89.43
51287;BME280;37364;46.974;18.916;2023-04-20T09:43:28;154777.75;;;17.55;96.30
51287;BME280;37364;46.974;18.916;2023-04-20T09:46:02;154585.22;;;16.79;94.44
51287;BME280;37364;46.974;18.916;2023-04-20T09:48:34;154576.09;;;16.75;94.07
51287;BME280;37364;46.974;18.916;2023-04-20T09:51:04;154721.81;;;17.33;93.03
51287;BME280;37364;46.974;18.916;2023-04-20T09:53:35;154645.06;;;17.03;88.19
51287;BME280;37364;46.974;18.916;2023-04-20T09:56:06;154792.06;;;17.61;91.19
51287;BME280;37364;46.974;18.916;2023-04-20T09:58:37;154716.63;;;17.31;80.38
51287;BME280;37364;46.974;18.916;2023-04-20T10:01:11;154857.16;;;17.86;83.58
51287;BME280;37364;46.974;18.916;2023-04-20T10:03:42;154845.38;;;17.82;85.99
51287;BME280;37364;46.974;18.916;2023-04-20T10:06:20;154902.69;;;18.04;81.56
51287;BME280;37364;46.974;18.916;2023-04-20T10:08:51;154859.72;;;17.87;73.60
51287;BME280;37364;46.974;18.916;2023-04-20T10:11:26;155017.22;;;18.49;76.53
51287;BME280;37364;46.974;18.916;2023-04-20T10:14:15;154862.34;;;17.88;75.19
51287;BME280;37364;46.974;18.916;2023-04-20T10:16:57;154972.94;;;18.32;72.59
51287;BME280;37364;46.974;18.916;2023-04-20T10:19:38;155022.41;;;18.51;71.11
51287;BME280;37364;46.974;18.916;2023-04-20T10:22:12;155097.94;;;18.81;71.46
51287;BME280;37364;46.974;18.916;2023-04-20T10:24:56;155005.50;;;18.45;62.17
51287;BME280;37364;46.974;18.916;2023-04-20T10:27:27;154848.00;;;17.83;65.74
51287;BME280;37364;46.974;18.916;2023-04-20T10:30:08;154976.88;;;18.33;64.02
51287;BME280;37364;46.974;18.916;2023-04-20T10:32:41;155004.19;;;18.44;65.76
51287;BME280;37364;46.974;18.916;2023-04-20T10:35:12;155152.63;;;19.03;62.71
51287;BME280;37364;46.974;18.916;2023-04-20T10:37:49;155095.38;;;18.80;60.45
51287;BME280;37364;46.974;18.916;2023-04-20T10:40:24;155249.03;;;19.41;65.43
51287;BME280;37364;46.974;18.916;2023-04-20T10:42:55;155404.06;;;20.02;73.10
51287;BME280;37364;46.974;18.916;2023-04-20T10:45:32;155398.88;;;20.00;67.14
51287;BME280;37364;46.974;18.916;2023-04-20T10:48:10;155413.22;;;20.05;69.00
51287;BME280;37364;46.974;18.916;2023-04-20T10:50:44;155462.72;;;20.25;64.68
51287;BME280;37364;46.974;18.916;2023-04-20T10:53:18;155642.63;;;20.96;64.44
51287;BME280;37364;46.974;18.916;2023-04-20T10:55:57;155475.72;;;20.30;66.16
51287;BME280;37364;46.974;18.916;2023-04-20T10:58:28;155466.59;;;20.26;65.74
51287;BME280;37364;46.974;18.916;2023-04-20T11:00:59;155608.72;;;20.82;64.27
51287;BME280;37364;46.974;18.916;2023-04-20T11:03:32;155424.91;;;20.10;65.30
51287;BME280;37364;46.974;18.916;2023-04-20T11:06:04;155576.09;;;20.69;62.66
51287;BME280;37364;46.974;18.916;2023-04-20T11:08:41;155421.00;;;20.08;64.99
51287;BME280;37364;46.974;18.916;2023-04-20T11:11:19;155000.31;;;18.43;63.10
51287;BME280;37364;46.974;18.916;2023-04-20T11:13:51;155053.63;;;18.64;63.30
51287;BME280;37364;46.974;18.916;2023-04-20T11:16:21;155151.34;;;19.02;64.73
51287;BME280;37364;46.974;18.916;2023-04-20T11:19:21;154952.13;;;18.24;64.27
51287;BME280;37364;46.974;18.916;2023-04-20T11:21:52;155060.19;;;18.66;65.40
51287;BME280;37364;46.974;18.916;2023-04-20T11:24:23;155258.09;;;19.44;67.62
51287;BME280;37364;46.974;18.916;2023-04-20T11:26:54;155125.31;;;18.92;59.61
51287;BME280;37364;46.974;18.916;2023-04-20T11:29:29;154954.72;;;18.25;61.65
51287;BME280;37364;46.974;18.916;2023-04-20T11:32:01;154816.78;;;17.70;63.57
51287;BME280;37364;46.974;18.916;2023-04-20T11:34:38;154970.38;;;18.31;65.20
51287;BME280;37364;46.974;18.916;2023-04-20T11:37:10;154941.72;;;18.20;64.33
51287;BME280;37364;46.974;18.916;2023-04-20T11:39:42;155174.78;;;19.11;60.85
51287;BME280;37364;46.974;18.916;2023-04-20T11:42:12;155095.38;;;18.80;61.72
51287;BME280;37364;46.974;18.916;2023-04-20T11:44:43;155139.66;;;18.98;62.38
51287;BME280;37364;46.974;18.916;2023-04-20T11:47:13;154915.72;;;18.09;62.43
51287;BME280;37364;46.974;18.916;2023-04-20T11:49:46;155139.66;;;18.98;64.36
51287;BME280;37364;46.974;18.916;2023-04-20T11:52:17;155107.06;;;18.85;63.37
51287;BME280;37364;46.974;18.916;2023-04-20T11:54:47;155202.13;;;19.22;68.39
51287;BME280;37364;46.974;18.916;2023-04-20T11:57:17;155319.34;;;19.68;65.94
51287;BME280;37364;46.974;18.916;2023-04-20T11:59:48;155178.66;;;19.13;59.13
51287;BME280;37364;46.974;18.916;2023-04-20T12:02:18;155273.78;;;19.50;57.12
51287;BME280;37364;46.974;18.916;2023-04-20T12:04:51;155237.28;;;19.36;55.67
51287;BME280;37364;46.974;18.916;2023-04-20T12:07:22;155161.75;;;19.06;57.94
51287;BME280;37364;46.974;18.916;2023-04-20T12:09:53;155277.66;;;19.52;57.15
51287;BME280;37364;46.974;18.916;2023-04-20T12:12:23;155377.97;;;19.91;56.67
51287;BME280;37364;46.974;18.916;2023-04-20T12:14:53;155426.19;;;20.10;58.66
51287;BME280;37364;46.974;18.916;2023-04-20T12:17:23;155490.06;;;20.35;56.12
51287;BME280;37364;46.974;18.916;2023-04-20T12:19:56;155342.81;;;19.78;56.34
51287;BME280;37364;46.974;18.916;2023-04-20T12:22:26;155405.38;;;20.02;54.52
51287;BME280;37364;46.974;18.916;2023-04-20T12:24:57;155529.16;;;20.51;53.20
51287;BME280;37364;46.974;18.916;2023-04-20T12:27:27;155333.75;;;19.74;53.12
51287;BME280;37364;46.974;18.916;2023-04-20T12:29:57;155065.38;;;18.68;54.12
51287;BME280;37364;46.974;18.916;2023-04-20T12:32:27;155246.41;;;19.40;55.65
51287;BME280;37364;46.974;18.916;2023-04-20T12:35:00;155331.09;;;19.73;54.44
51287;BME280;37364;46.974;18.916;2023-04-20T12:37:31;155254.22;;;19.43;54.94
51287;BME280;37364;46.974;18.916;2023-04-20T12:40:01;155173.47;;;19.11;58.21
51287;BME280;37364;46.974;18.916;2023-04-20T12:42:32;155180.00;;;19.13;55.93
51287;BME280;37364;46.974;18.916;2023-04-20T12:45:03;155288.06;;;19.56;55.69
51287;BME280;37364;46.974;18.916;2023-04-20T12:47:33;155462.72;;;20.25;53.82
51287;BME280;37364;46.974;18.916;2023-04-20T12:50:07;155256.81;;;19.44;55.85
51287;BME280;37364;46.974;18.916;2023-04-20T12:52:37;155127.91;;;18.93;54.19
51287;BME280;37364;46.974;18.916;2023-04-20T12:55:08;155306.31;;;19.63;52.37
51287;BME280;37364;46.974;18.916;2023-04-20T12:57:40;155421.00;;;20.08;57.18
51287;BME280;37364;46.974;18.916;2023-04-20T13:00:11;155414.50;;;20.06;53.38
51287;BME280;37364;46.974;18.916;2023-04-20T13:02:42;155160.47;;;19.06;54.74